Peary Spirit — C6YM3 — position and weather

sailwx.info

Track history (hours):
 
Tides and Currents Weather Stations Pressure Air Temp Water Temp Dewpoint Dewpoint Depression Visibility Wind Speed Wind Dir Waves Ship Positions

Peary Spirit

Last reported at 2015-Aug-28 12:33 UTC. Time now 2015-Aug-28 12:47 UTC.
Position N 54°45' E 019°04'.

Length 249 m; draft 15 m.

Type: Ship (hazmat cat A). MMSI: 311027600.

Date/timePositionNaut miles runAvg speedWind from/ knotsBaromVisibWave heightAir tempDewpointWater temp
2015-Aug-28 12:33N 54°45' E 019°04'6 6.4
2015-Aug-28 11:33N 54°51' E 019°04'6 6.3
2015-Aug-28 10:33N 54°58' E 019°06'7 6.6
2015-Aug-28 09:33N 55°04' E 019°07'7 6.6
2015-Aug-28 08:32N 55°11' E 019°08'20010.0
2015-Aug-27 12:32N 58°23' E 020°44'8213.6
2015-Aug-27 06:31N 59°27' E 022°23'2913.3
2015-Aug-27 04:20N 59°37' E 023°17'1113.7
2015-Aug-27 03:33N 59°40' E 023°37'1413.6
2015-Aug-27 02:32N 59°44' E 024°03'7014.0
2015-Aug-26 21:32N 59°59' E 026°19'1313.3
2015-Aug-26 20:33N 60°01' E 026°45'60 1.6
2015-Aug-25 06:10N 60°11' E 028°44'1312.5
2015-Aug-25 05:10N 60°00' E 028°31'22 1.4
2015-Aug-24 14:06N 60°10' E 027°52'5 8.7
2015-Aug-24 13:31N 60°09' E 027°42'10 9.5
2015-Aug-24 12:29N 60°04' E 027°25'9 9.6
2015-Aug-24 11:34N 59°60' E 027°10'9 8.9
2015-Aug-24 10:33N 59°59' E 026°52'9 9.4
2015-Aug-24 09:34N 59°59' E 026°33'10 9.8
2015-Aug-24 08:33N 59°56' E 026°14'10 9.8
2015-Aug-24 07:34N 59°53' E 025°55'10 9.7
2015-Aug-24 06:34N 59°51' E 025°37'10 9.7
2015-Aug-24 05:33N 59°49' E 025°18'10 9.8
2015-Aug-24 04:33N 59°47' E 024°59'1010.0
2015-Aug-24 03:33N 59°45' E 024°39'10 9.9
2015-Aug-24 02:33N 59°42' E 024°20'10 9.7
2015-Aug-24 01:33N 59°39' E 024°02'10 9.8
2015-Aug-24 00:33N 59°36' E 023°43'1010.0
2015-Aug-23 23:33N 59°33' E 023°25'1110.8
2015-Aug-23 22:33N 59°30' E 023°04'1110.6
2015-Aug-23 21:33N 59°27' E 022°45'1010.2
2015-Aug-23 20:34N 59°22' E 022°27'10 9.8
2015-Aug-23 19:33N 59°15' E 022°12'2010.0
2015-Aug-23 17:34N 59°02' E 021°43'3010.0
2015-Aug-23 14:33N 58°38' E 021°10'6 6.1
2015-Aug-23 13:34N 58°33' E 021°04'1 0.6
2015-Aug-23 12:31N 58°32' E 021°05'3 2.9
2015-Aug-23 11:34N 58°30' E 021°02'9 8.5
2015-Aug-23 10:33N 58°23' E 020°52'9 8.9
2015-Aug-23 09:33N 58°16' E 020°43'9 9.0
2015-Aug-23 08:34N 58°08' E 020°33'9 8.9
2015-Aug-23 07:33N 58°01' E 020°24'9 8.9
2015-Aug-23 06:33N 57°52' E 020°17'9 9.0
2015-Aug-23 05:32N 57°44' E 020°10'9 9.5
2015-Aug-23 04:33N 57°36' E 020°04'9 9.5
2015-Aug-23 03:33N 57°27' E 019°56'10 9.6
2015-Aug-23 02:33N 57°18' E 019°49'10 9.8
2015-Aug-23 01:33N 57°10' E 019°40'10 9.6
2015-Aug-23 00:31N 57°01' E 019°31'9 9.3
2015-Aug-22 23:33N 56°53' E 019°24'9 9.1
2015-Aug-22 22:33N 56°45' E 019°16'9 9.0
2015-Aug-22 21:33N 56°37' E 019°08'9 9.0
2015-Aug-22 20:34N 56°29' E 018°60'9 8.7
2015-Aug-22 19:33N 56°22' E 018°52'9 8.7
2015-Aug-22 18:33N 56°16' E 018°41'9 9.0
2015-Aug-22 17:34N 56°11' E 018°27'9 9.0
2015-Aug-22 16:34N 56°06' E 018°14'9 9.1
2015-Aug-22 15:33N 56°01' E 017°60'9 9.1
2015-Aug-22 14:34N 55°56' E 017°46'9 9.1
2015-Aug-22 13:34N 55°53' E 017°30'9 9.2
2015-Aug-22 12:33N 55°51' E 017°15'9 9.4
2015-Aug-22 11:34N 55°49' E 016°58'9 9.2
2015-Aug-22 10:34N 55°47' E 016°43'9 9.1
2015-Aug-22 09:34N 55°45' E 016°27'9 8.7
2015-Aug-22 08:33N 55°43' E 016°12'1010.2
2015-Aug-22 07:33N 55°40' E 015°54'1110.6
2015-Aug-22 06:34N 55°38' E 015°36'1010.1
2015-Aug-22 05:34N 55°34' E 015°20'1010.3
2015-Aug-22 04:34N 55°28' E 015°05'1010.2
2015-Aug-22 03:34N 55°22' E 014°51'1111.2
2015-Aug-22 02:33N 55°15' E 014°35'1414.0
2015-Aug-22 01:34N 55°05' E 014°17'1313.3
2015-Aug-22 00:33N 54°59' E 013°56'1313.1
2015-Aug-21 23:33N 54°55' E 013°35'1313.5
2015-Aug-21 22:33N 54°51' E 013°12'1413.6
2015-Aug-21 21:33N 54°47' E 012°50'1313.3
2015-Aug-21 20:33N 54°40' E 012°30'1312.6
2015-Aug-21 19:33N 54°31' E 012°15'1111.0
2015-Aug-21 18:33N 54°25' E 011°59'1212.3
2015-Aug-21 17:33N 54°27' E 011°38'1212.4
2015-Aug-21 16:33N 54°33' E 011°19'1212.2
2015-Aug-21 15:33N 54°38' E 011°00'1511.1
2015-Aug-21 14:14N 54°52' E 010°52'1412.0
2015-Aug-21 13:04N 55°05' E 011°02'3211.7
2015-Aug-21 10:20N 55°36' E 010°48'911.9
2015-Aug-21 09:33N 55°45' E 010°48'1212.4
2015-Aug-21 08:33N 55°56' E 010°58'1212.4
2015-Aug-21 07:33N 56°07' E 011°10'1313.0
2015-Aug-21 06:33N 56°18' E 011°23'1313.1
2015-Aug-21 05:33N 56°29' E 011°35'1312.7
2015-Aug-21 04:33N 56°40' E 011°46'1212.2
2015-Aug-21 03:34N 56°52' E 011°48'1312.6
2015-Aug-21 02:33N 57°04' E 011°40'1212.4
2015-Aug-21 01:33N 57°16' E 011°32'1212.4
2015-Aug-21 00:33N 57°28' E 011°24'1312.6
2015-Aug-20 23:33N 57°36' E 011°07'1312.8
2015-Aug-20 22:33N 57°45' E 010°49'10 9.9
2015-Aug-20 21:33N 57°47' E 010°31'10 9.9
2015-Aug-20 20:33N 57°46' E 010°13'1313.0
2015-Aug-20 19:33N 57°45' E 009°48'1313.0
2015-Aug-20 18:33N 57°44' E 009°24'1313.2
2015-Aug-20 17:33N 57°43' E 008°59'1312.8
2015-Aug-20 16:33N 57°37' E 008°39'1513.1
2015-Aug-20 15:23N 57°27' E 008°17'1112.8
2015-Aug-20 14:33N 57°21' E 008°00'19812.3
2015-Aug-19 22:28N 54°30' E 004°59'1613.0
2015-Aug-19 21:15N 54°16' E 004°46'1413.1
2015-Aug-19 20:11N 54°03' E 004°40'4515.2
2015-Aug-19 17:15N 53°31' E 003°47'2715.8
2015-Aug-19 15:33N 53°07' E 003°29'6011.9
2015-Aug-19 10:30N 52°07' E 003°37'1212.7
2015-Aug-19 09:33N 52°02' E 003°54'1111.2
2015-Aug-19 08:34N 51°57' E 004°10'2 2.1
2015-Aug-19 07:34N 51°55' E 004°12'0 0.0
2015-Aug-19 06:34N 51°55' E 004°12'0 0.0
2015-Aug-19 05:33N 51°55' E 004°12'0 0.0
2015-Aug-19 04:33N 51°55' E 004°12'0 0.0
2015-Aug-19 03:30N 51°55' E 004°12'0 0.0
2015-Aug-19 02:33N 51°55' E 004°12'0 0.0
2015-Aug-19 01:33N 51°55' E 004°12'0 0.0
2015-Aug-19 00:33N 51°55' E 004°12'0 0.0
2015-Aug-18 23:33N 51°55' E 004°12'0 0.0
2015-Aug-18 22:33N 51°55' E 004°12'0 0.0
2015-Aug-18 21:33N 51°55' E 004°12'0 0.0
2015-Aug-18 20:33N 51°55' E 004°12'0 0.0
2015-Aug-18 19:33N 51°55' E 004°12'0 0.0
2015-Aug-18 18:34N 51°55' E 004°12'0 0.0
2015-Aug-18 17:33N 51°55' E 004°12'0 0.0
2015-Aug-18 16:33N 51°55' E 004°12'0 0.0
2015-Aug-18 15:33N 51°55' E 004°12'0 0.0
2015-Aug-18 14:34N 51°55' E 004°12'0 0.0
2015-Aug-18 13:33N 51°55' E 004°12'  
Track history (hours):
 
Tides and Currents Weather Stations Pressure Air Temp Water Temp Dewpoint Dewpoint Depression Visibility Wind Speed Wind Dir Waves Ship Positions

Peary Spirit

Last reported at 2015-Aug-28 12:33 UTC. Time now 2015-Aug-28 12:47 UTC.
Position N 54°45' E 019°04'.

Length 249 m; draft 15 m.

Type: Ship (hazmat cat A). MMSI: 311027600.

Date/timePositionNaut miles runAvg speedWind from/ knotsBaromVisibWave heightAir tempDewpointWater temp
2015-Aug-28 12:33N 54°45' E 019°04'6 6.4
2015-Aug-28 11:33N 54°51' E 019°04'6 6.3
2015-Aug-28 10:33N 54°58' E 019°06'7 6.6
2015-Aug-28 09:33N 55°04' E 019°07'7 6.6
2015-Aug-28 08:32N 55°11' E 019°08'20010.0
2015-Aug-27 12:32N 58°23' E 020°44'8213.6
2015-Aug-27 06:31N 59°27' E 022°23'2913.3
2015-Aug-27 04:20N 59°37' E 023°17'1113.7
2015-Aug-27 03:33N 59°40' E 023°37'1413.6
2015-Aug-27 02:32N 59°44' E 024°03'7014.0
2015-Aug-26 21:32N 59°59' E 026°19'1313.3
2015-Aug-26 20:33N 60°01' E 026°45'60 1.6
2015-Aug-25 06:10N 60°11' E 028°44'1312.5
2015-Aug-25 05:10N 60°00' E 028°31'22 1.4
2015-Aug-24 14:06N 60°10' E 027°52'5 8.7
2015-Aug-24 13:31N 60°09' E 027°42'10 9.5
2015-Aug-24 12:29N 60°04' E 027°25'9 9.6
2015-Aug-24 11:34N 59°60' E 027°10'9 8.9
2015-Aug-24 10:33N 59°59' E 026°52'9 9.4
2015-Aug-24 09:34N 59°59' E 026°33'10 9.8
2015-Aug-24 08:33N 59°56' E 026°14'10 9.8
2015-Aug-24 07:34N 59°53' E 025°55'10 9.7
2015-Aug-24 06:34N 59°51' E 025°37'10 9.7
2015-Aug-24 05:33N 59°49' E 025°18'10 9.8
2015-Aug-24 04:33N 59°47' E 024°59'1010.0
2015-Aug-24 03:33N 59°45' E 024°39'10 9.9
2015-Aug-24 02:33N 59°42' E 024°20'10 9.7
2015-Aug-24 01:33N 59°39' E 024°02'10 9.8
2015-Aug-24 00:33N 59°36' E 023°43'1010.0
2015-Aug-23 23:33N 59°33' E 023°25'1110.8
2015-Aug-23 22:33N 59°30' E 023°04'1110.6
2015-Aug-23 21:33N 59°27' E 022°45'1010.2
2015-Aug-23 20:34N 59°22' E 022°27'10 9.8
2015-Aug-23 19:33N 59°15' E 022°12'2010.0
2015-Aug-23 17:34N 59°02' E 021°43'3010.0
2015-Aug-23 14:33N 58°38' E 021°10'6 6.1
2015-Aug-23 13:34N 58°33' E 021°04'1 0.6
2015-Aug-23 12:31N 58°32' E 021°05'3 2.9
2015-Aug-23 11:34N 58°30' E 021°02'9 8.5
2015-Aug-23 10:33N 58°23' E 020°52'9 8.9
2015-Aug-23 09:33N 58°16' E 020°43'9 9.0
2015-Aug-23 08:34N 58°08' E 020°33'9 8.9
2015-Aug-23 07:33N 58°01' E 020°24'9 8.9
2015-Aug-23 06:33N 57°52' E 020°17'9 9.0
2015-Aug-23 05:32N 57°44' E 020°10'9 9.5
2015-Aug-23 04:33N 57°36' E 020°04'9 9.5
2015-Aug-23 03:33N 57°27' E 019°56'10 9.6
2015-Aug-23 02:33N 57°18' E 019°49'10 9.8
2015-Aug-23 01:33N 57°10' E 019°40'10 9.6
2015-Aug-23 00:31N 57°01' E 019°31'9 9.3
2015-Aug-22 23:33N 56°53' E 019°24'9 9.1
2015-Aug-22 22:33N 56°45' E 019°16'9 9.0
2015-Aug-22 21:33N 56°37' E 019°08'9 9.0
2015-Aug-22 20:34N 56°29' E 018°60'9 8.7
2015-Aug-22 19:33N 56°22' E 018°52'9 8.7
2015-Aug-22 18:33N 56°16' E 018°41'9 9.0
2015-Aug-22 17:34N 56°11' E 018°27'9 9.0
2015-Aug-22 16:34N 56°06' E 018°14'9 9.1
2015-Aug-22 15:33N 56°01' E 017°60'9 9.1
2015-Aug-22 14:34N 55°56' E 017°46'9 9.1
2015-Aug-22 13:34N 55°53' E 017°30'9 9.2
2015-Aug-22 12:33N 55°51' E 017°15'9 9.4
2015-Aug-22 11:34N 55°49' E 016°58'9 9.2
2015-Aug-22 10:34N 55°47' E 016°43'9 9.1
2015-Aug-22 09:34N 55°45' E 016°27'9 8.7
2015-Aug-22 08:33N 55°43' E 016°12'1010.2
2015-Aug-22 07:33N 55°40' E 015°54'1110.6
2015-Aug-22 06:34N 55°38' E 015°36'1010.1
2015-Aug-22 05:34N 55°34' E 015°20'1010.3
2015-Aug-22 04:34N 55°28' E 015°05'1010.2
2015-Aug-22 03:34N 55°22' E 014°51'1111.2
2015-Aug-22 02:33N 55°15' E 014°35'1414.0
2015-Aug-22 01:34N 55°05' E 014°17'1313.3
2015-Aug-22 00:33N 54°59' E 013°56'1313.1
2015-Aug-21 23:33N 54°55' E 013°35'1313.5
2015-Aug-21 22:33N 54°51' E 013°12'1413.6
2015-Aug-21 21:33N 54°47' E 012°50'1313.3
2015-Aug-21 20:33N 54°40' E 012°30'1312.6
2015-Aug-21 19:33N 54°31' E 012°15'1111.0
2015-Aug-21 18:33N 54°25' E 011°59'1212.3
2015-Aug-21 17:33N 54°27' E 011°38'1212.4
2015-Aug-21 16:33N 54°33' E 011°19'1212.2
2015-Aug-21 15:33N 54°38' E 011°00'1511.1
2015-Aug-21 14:14N 54°52' E 010°52'1412.0
2015-Aug-21 13:04N 55°05' E 011°02'3211.7
2015-Aug-21 10:20N 55°36' E 010°48'911.9
2015-Aug-21 09:33N 55°45' E 010°48'1212.4
2015-Aug-21 08:33N 55°56' E 010°58'1212.4
2015-Aug-21 07:33N 56°07' E 011°10'1313.0
2015-Aug-21 06:33N 56°18' E 011°23'1313.1
2015-Aug-21 05:33N 56°29' E 011°35'1312.7
2015-Aug-21 04:33N 56°40' E 011°46'1212.2
2015-Aug-21 03:34N 56°52' E 011°48'1312.6
2015-Aug-21 02:33N 57°04' E 011°40'1212.4
2015-Aug-21 01:33N 57°16' E 011°32'1212.4
2015-Aug-21 00:33N 57°28' E 011°24'1312.6
2015-Aug-20 23:33N 57°36' E 011°07'1312.8
2015-Aug-20 22:33N 57°45' E 010°49'10 9.9
2015-Aug-20 21:33N 57°47' E 010°31'10 9.9
2015-Aug-20 20:33N 57°46' E 010°13'1313.0
2015-Aug-20 19:33N 57°45' E 009°48'1313.0
2015-Aug-20 18:33N 57°44' E 009°24'1313.2
2015-Aug-20 17:33N 57°43' E 008°59'1312.8
2015-Aug-20 16:33N 57°37' E 008°39'1513.1
2015-Aug-20 15:23N 57°27' E 008°17'1112.8
2015-Aug-20 14:33N 57°21' E 008°00'19812.3
2015-Aug-19 22:28N 54°30' E 004°59'1613.0
2015-Aug-19 21:15N 54°16' E 004°46'1413.1
2015-Aug-19 20:11N 54°03' E 004°40'4515.2
2015-Aug-19 17:15N 53°31' E 003°47'2715.8
2015-Aug-19 15:33N 53°07' E 003°29'6011.9
2015-Aug-19 10:30N 52°07' E 003°37'1212.7
2015-Aug-19 09:33N 52°02' E 003°54'1111.2
2015-Aug-19 08:34N 51°57' E 004°10'2 2.1
2015-Aug-19 07:34N 51°55' E 004°12'0 0.0
2015-Aug-19 06:34N 51°55' E 004°12'0 0.0
2015-Aug-19 05:33N 51°55' E 004°12'0 0.0
2015-Aug-19 04:33N 51°55' E 004°12'0 0.0
2015-Aug-19 03:30N 51°55' E 004°12'0 0.0
2015-Aug-19 02:33N 51°55' E 004°12'0 0.0
2015-Aug-19 01:33N 51°55' E 004°12'0 0.0
2015-Aug-19 00:33N 51°55' E 004°12'0 0.0
2015-Aug-18 23:33N 51°55' E 004°12'0 0.0
2015-Aug-18 22:33N 51°55' E 004°12'0 0.0
2015-Aug-18 21:33N 51°55' E 004°12'0 0.0
2015-Aug-18 20:33N 51°55' E 004°12'0 0.0
2015-Aug-18 19:33N 51°55' E 004°12'0 0.0
2015-Aug-18 18:34N 51°55' E 004°12'0 0.0
2015-Aug-18 17:33N 51°55' E 004°12'0 0.0
2015-Aug-18 16:33N 51°55' E 004°12'0 0.0
2015-Aug-18 15:33N 51°55' E 004°12'0 0.0
2015-Aug-18 14:34N 51°55' E 004°12'0 0.0
2015-Aug-18 13:33N 51°55' E 004°12'  

Dump ship's entire track history